EW9209 Hermosillo MX current weather conditions

sailwx.info

Air temperature 22.8° C
Dewpoint 17.5° C

Last reported at 2020-May-31 13:03 UTC.
Time now 2020-May-31 13:41 UTC

Location: N 28°58' W 111°15'.
View on Google Maps.

See reports from other nearby stations

  
Tides and Currents Weather Stations Pressure Air Temp Water Temp Dewpoint Dewpoint Depression Visibility Wind Speed Wind Dir Waves Ship Positions
date/time (UTC)wind fromknots sea level pressurealtimeterstation pressurevisibilityair tempwater tempwave heightnotes
2020-May-31 13:03 22.8
2020-May-31 12:53 22.2
2020-May-31 12:43 22.2
2020-May-31 12:33 22.2
2020-May-31 12:23 21.7
2020-May-31 12:13 21.7
2020-May-31 12:03 21.7
2020-May-31 11:53 21.7
2020-May-31 11:43 180 0 gusting 1 21.7
2020-May-31 11:33 21.7
2020-May-31 11:23 21.7
2020-May-31 11:13 180 0 gusting 0 21.7
2020-May-31 10:53 22.2
2020-May-31 10:43 21.7
2020-May-31 10:33 21.7
2020-May-31 10:23 22.2
2020-May-31 10:13 22.8
2020-May-31 10:03 22.8
2020-May-31 09:53 22.8
2020-May-31 09:43 23.3
2020-May-31 09:33 23.3
2020-May-31 09:23 23.3
2020-May-31 09:13 23.3
2020-May-31 09:03 23.3
2020-May-31 08:53 23.3
2020-May-31 08:43 23.3
2020-May-31 08:33 23.3
2020-May-31 08:23 23.9
2020-May-31 08:13 24.4
2020-May-31 08:03 24.4
2020-May-31 07:53 24.4
2020-May-31 07:43 180 1 gusting 2 24.4
2020-May-31 07:33 180 1 gusting 2 24.4
2020-May-31 07:23 180 1 gusting 2 25.0
2020-May-31 07:13 180 0 gusting 1 25.0
2020-May-31 07:03 180 2 gusting 3 25.0
2020-May-31 06:53 180 1 gusting 1 25.0
2020-May-31 06:43 180 1 gusting 2 25.6
2020-May-31 06:33 180 2 gusting 3 25.6
2020-May-31 06:23 202 3 gusting 3 26.1
2020-May-31 06:13 202 2 gusting 3 26.7
2020-May-31 06:03 202 3 gusting 3 26.7
2020-May-31 05:53 202 0 gusting 1 27.2
2020-May-31 05:43 202 3 gusting 4 27.2
2020-May-31 05:33 202 2 gusting 3 27.2
2020-May-31 05:23 27.2
2020-May-31 05:13 225 1 gusting 2 27.8
2020-May-31 05:03 202 1 gusting 2 27.8
2020-May-31 04:53 202 1 gusting 2 28.3
2020-May-31 04:43 202 1 gusting 3 28.3
2020-May-31 04:33 202 1 gusting 2 28.9
2020-May-31 04:23 29.4
2020-May-31 04:13 225 0 gusting 1 29.4
2020-May-31 04:03 30.0
2020-May-31 03:53 225 0 gusting 1 30.0
2020-May-31 03:43 247 1 gusting 2 30.0
2020-May-31 03:33 270 6 gusting 6 30.6
2020-May-31 03:23 270 3 gusting 6 31.1
2020-May-31 03:13 292 4 gusting 6 31.1
2020-May-31 03:03 292 5 gusting 8 31.7
2020-May-31 02:53 292 3 gusting 5 32.2
2020-May-31 02:43 292 2 gusting 4 32.2
2020-May-31 02:33 270 4 gusting 6 32.8
2020-May-31 02:23 315 3 gusting 5 33.3
2020-May-31 02:13 292 5 gusting 6 33.9
2020-May-31 02:03 247 2 gusting 4 33.9
2020-May-31 01:53 270 2 gusting 5 34.4
2020-May-31 01:43 270 5 gusting 7 35.0
2020-May-31 01:33 292 6 gusting 7 35.0
2020-May-31 01:23 270 6 gusting 9 35.6
2020-May-31 01:13 292 5 gusting 6 36.1
2020-May-31 01:03 270 5 gusting 7 36.1
2020-May-31 00:53 270 6 gusting 9 36.7
2020-May-31 00:43 292 5 gusting 7 36.7
2020-May-31 00:33 292 6 gusting 10 36.7
2020-May-31 00:23 270 7 gusting 11 36.7
2020-May-31 00:13 292 6 gusting 8 37.2
2020-May-31 00:03 315 7 gusting 10 37.2
2020-May-30 23:53 292 5 gusting 7 37.2
2020-May-30 23:43 292 7 gusting 9 37.2
2020-May-30 23:33 292 8 gusting 12 37.8
2020-May-30 23:23 315 6 gusting 9 37.8
2020-May-30 23:13 292 7 gusting 11 37.8
2020-May-30 23:03 315 6 gusting 8 38.3
2020-May-30 22:53 292 5 gusting 7 38.3
2020-May-30 22:43 292 7 gusting 9 38.9
2020-May-30 22:33 270 6 gusting 9 38.9
2020-May-30 22:23 292 10 gusting 12 38.9
2020-May-30 22:13 315 8 gusting 11 38.9
2020-May-30 22:03 292 6 gusting 8 39.4
2020-May-30 21:53 292 7 gusting 11 39.4
2020-May-30 21:43 292 6 gusting 8 39.4
2020-May-30 21:33 270 3 gusting 5 39.4
2020-May-30 21:13 270 5 gusting 7 40.0
2020-May-30 21:03 292 6 gusting 9 40.6
2020-May-30 20:53 225 2 gusting 3 40.0
2020-May-30 20:43 270 2 gusting 6 39.4
2020-May-30 20:33 40.0
2020-May-30 20:23 270 1 gusting 3 40.0
2020-May-30 20:13 337 0 gusting 1 39.4
2020-May-30 20:03 270 0 gusting 1 40.0
2020-May-30 19:53 225 4 gusting 10 39.4
2020-May-30 19:43 202 3 gusting 4 40.0
2020-May-30 19:33 202 5 gusting 6 39.4
2020-May-30 19:23 292 0 gusting 2 39.4
2020-May-30 19:13 202 1 gusting 2 39.4
2020-May-30 19:03 202 3 gusting 4 38.9
2020-May-30 18:53 202 4 gusting 6 38.9
2020-May-30 18:43 270 3 gusting 6 38.3
2020-May-30 18:33 315 0 gusting 1 37.8
2020-May-30 18:23 157 1 gusting 2 37.8
2020-May-30 18:13 202 2 gusting 6 37.8
2020-May-30 18:03 292 1 gusting 2 37.2
2020-May-30 17:53 247 3 gusting 6 36.7
2020-May-30 17:43 157 0 gusting 2 36.1
2020-May-30 17:33 112 2 gusting 6 36.1
2020-May-30 17:23 157 4 gusting 6 36.1
2020-May-30 17:13 157 1 gusting 4 36.1
2020-May-30 17:03 225 1 gusting 3 35.6
2020-May-30 16:53 180 0 gusting 1 35.0
2020-May-30 16:43 135 2 gusting 3 33.9
2020-May-30 16:33 202 1 gusting 2 33.9
2020-May-30 16:23 33.3
2020-May-30 16:13 135 1 gusting 3 32.8
2020-May-30 16:03 157 3 gusting 6 32.2
2020-May-30 15:53 157 2 gusting 2 31.7
2020-May-30 15:43 157 3 gusting 4 31.1
2020-May-30 15:33 045 1 gusting 2 30.6
2020-May-30 15:23 112 4 gusting 6 30.0
2020-May-30 15:13 090 2 gusting 5 29.4
2020-May-30 15:03 090 2 gusting 3 28.9
2020-May-30 14:53 045 0 gusting 1 28.3
2020-May-30 14:43 022 3 gusting 4 27.8
2020-May-30 14:33 022 1 gusting 3 27.2
2020-May-30 14:23 26.7
2020-May-30 14:13 26.7
2020-May-30 14:03 25.6
2020-May-30 13:53 022 0 gusting 1 25.0
2020-May-30 13:43 022 1 gusting 2 24.4
2020-May-30 13:33 315 1 gusting 2 23.3
2020-May-30 13:23 22.8
2020-May-30 13:13 22.2
2020-May-30 13:03 21.7
2020-May-30 12:53 21.7
2020-May-30 12:43 21.1
2020-May-30 12:33 315 0 gusting 1 21.1
2020-May-30 12:23 315 1 gusting 1 21.1
2020-May-30 12:13 315 1 gusting 1 21.1
2020-May-30 12:03 315 0 gusting 0 21.1
2020-May-30 11:53 21.7
2020-May-30 11:43 315 0 gusting 1 21.7
2020-May-30 11:33 21.7
2020-May-30 11:23 21.7
2020-May-30 11:13 21.7
2020-May-30 11:03 21.7
2020-May-30 10:53 21.7
2020-May-30 10:43 21.7
2020-May-30 10:33 21.7
2020-May-30 10:23 21.7
2020-May-30 10:13 22.2
2020-May-30 10:03 315 0 gusting 1 22.2
2020-May-30 09:53 22.2
2020-May-30 09:43 22.2
2020-May-30 09:33 22.8
2020-May-30 09:23 22.8
2020-May-30 09:13 22.8
2020-May-30 09:03 22.8
2020-May-30 08:53 22.8
2020-May-30 08:43 315 0 gusting 1 22.8
2020-May-30 08:33 22.8
2020-May-30 08:23 23.3
2020-May-30 08:13 23.9
2020-May-30 08:03 23.9
2020-May-30 07:53 23.9
2020-May-30 07:43 23.9
2020-May-30 07:33 23.9
2020-May-30 07:23 23.9
2020-May-30 07:13 24.4
2020-May-30 07:03 24.4
2020-May-30 06:53 25.0
2020-May-30 06:43 25.0
2020-May-30 06:33 25.6
2020-May-30 06:23 25.6
2020-May-30 06:13 315 0 gusting 1 25.6
2020-May-30 06:03 315 1 gusting 2 25.6
2020-May-30 05:53 25.6
2020-May-30 05:43 25.6
2020-May-30 05:33 26.1
2020-May-30 05:23 26.7
2020-May-30 05:13 27.2
2020-May-30 05:03 27.8
2020-May-30 04:53 27.8
2020-May-30 04:43 270 0 gusting 1 28.3
2020-May-30 04:33 247 1 gusting 3 28.3
2020-May-30 04:23 247 0 gusting 2 28.9
2020-May-30 04:13 202 0 gusting 2 28.9
2020-May-30 04:03 225 2 gusting 4 29.4
2020-May-30 03:53 202 2 gusting 3 29.4
2020-May-30 03:43 202 2 gusting 3 30.0
2020-May-30 03:33 202 1 gusting 2 30.0
2020-May-30 03:23 202 2 gusting 3 30.0
2020-May-30 03:13 247 0 gusting 0 30.6
2020-May-30 03:03 247 0 gusting 2 31.1
2020-May-30 02:53 247 1 gusting 1 31.1
2020-May-30 02:43 270 1 gusting 2 31.7
2020-May-30 02:33 270 1 gusting 2 32.2
2020-May-30 02:23 270 3 gusting 5 32.2
2020-May-30 02:13 247 2 gusting 5 32.8
2020-May-30 02:03 270 3 gusting 6 33.3
2020-May-30 01:53 270 5 gusting 6 33.9
2020-May-30 01:43 247 2 gusting 4 34.4
2020-May-30 01:33 270 3 gusting 5 34.4
2020-May-30 01:23 270 4 gusting 5 35.0
2020-May-30 01:13 270 4 gusting 5 35.6
2020-May-30 01:03 292 3 gusting 5 35.6
2020-May-30 00:53 292 6 gusting 7 35.6
2020-May-30 00:43 315 4 gusting 7 35.6
2020-May-30 00:33 292 5 gusting 7 35.6
2020-May-30 00:23 292 6 gusting 10 35.6
2020-May-30 00:13 315 6 gusting 10 36.1
2020-May-30 00:03 315 5 gusting 6 36.1
2020-May-29 23:53 315 5 gusting 7 36.1
2020-May-29 23:43 292 6 gusting 8 36.1
2020-May-29 23:33 292 4 gusting 6 36.1
2020-May-29 23:23 315 6 gusting 9 36.1
2020-May-29 23:13 315 6 gusting 10 36.1
2020-May-29 23:03 315 6 gusting 10 36.1
2020-May-29 22:53 292 5 gusting 6 36.1
2020-May-29 22:43 292 6 gusting 9 36.1
2020-May-29 22:33 270 7 gusting 11 36.7
2020-May-29 22:23 315 4 gusting 6 36.7
2020-May-29 22:13 315 7 gusting 10 36.7
2020-May-29 22:03 270 6 gusting 11 36.7
2020-May-29 21:53 292 7 gusting 13 37.8
2020-May-29 21:43 337 4 gusting 6 37.8
2020-May-29 21:33 292 3 gusting 5 37.8
2020-May-29 21:23 247 1 gusting 4 37.8
2020-May-29 21:13 270 3 gusting 5 37.8
2020-May-29 21:03 315 5 gusting 6 37.8
2020-May-29 20:53 315 6 gusting 7 37.8
2020-May-29 20:43 247 2 gusting 6 37.2
2020-May-29 20:33 37.2
2020-May-29 20:23 292 3 gusting 4 37.2
2020-May-29 20:13 315 1 gusting 3 37.2
2020-May-29 20:03 315 2 gusting 3 36.7
2020-May-29 19:53 315 3 gusting 6 36.7
2020-May-29 19:43 315 3 gusting 5 36.1
2020-May-29 19:33 202 2 gusting 4 36.1
2020-May-29 19:23 292 3 gusting 6 36.1
2020-May-29 19:13 337 4 gusting 5 36.1
2020-May-29 19:03 270 5 gusting 6 35.6
2020-May-29 18:53 270 2 gusting 3 35.6
2020-May-29 18:43 292 2 gusting 3 35.0
2020-May-29 18:33 34.4
2020-May-29 18:23 270 1 gusting 5 34.4
2020-May-29 18:13 315 3 gusting 5 34.4
2020-May-29 18:03 315 2 gusting 6 33.9
2020-May-29 17:53 292 3 gusting 7 33.9
2020-May-29 17:43 33.3
2020-May-29 17:33 022 1 gusting 2 33.3
2020-May-29 17:23 337 2 gusting 3 32.8
2020-May-29 17:13 337 4 gusting 6 32.8
2020-May-29 17:03 315 3 gusting 4 32.2
2020-May-29 16:53 247 2 gusting 4 31.7
2020-May-29 16:43 337 3 gusting 4 31.7
2020-May-29 16:33 315 1 gusting 2 31.7
2020-May-29 16:23 292 1 gusting 2 31.1
2020-May-29 16:13 180 0 gusting 2 31.1
2020-May-29 16:03 202 0 gusting 1 31.1
2020-May-29 15:53 30.6
2020-May-29 15:43 202 2 gusting 3 30.6
2020-May-29 15:33 157 2 gusting 5 30.0
2020-May-29 15:23 157 1 gusting 2 29.4
2020-May-29 15:13 067 1 gusting 3 28.9
2020-May-29 15:03 112 2 gusting 3 28.3
2020-May-29 14:53 112 3 gusting 5 27.8
2020-May-29 14:43 112 3 gusting 4 27.2
2020-May-29 14:33 135 4 gusting 6 26.7
2020-May-29 14:23 112 2 gusting 5 26.7
2020-May-29 14:13 135 3 gusting 4 25.6
2020-May-29 14:03 112 4 gusting 6 25.0
2020-May-29 13:53 090 2 gusting 3 24.4
2020-May-29 13:43 090 3 gusting 5 23.9
2020-May-29 13:33 135 2 gusting 2 23.3
2020-May-29 13:23 180 1 gusting 2 22.8
2020-May-29 13:13 21.1
2020-May-29 13:03 20.6